createdAt,value
2023-05-07T00:01:24.019Z,11.90
2023-05-07T00:03:50.798Z,11.90
2023-05-07T00:06:18.091Z,11.80
2023-05-07T00:08:44.727Z,11.80
2023-05-07T00:11:11.531Z,11.70
2023-05-07T00:13:38.178Z,11.70
2023-05-07T00:16:05.449Z,11.70
2023-05-07T00:18:32.230Z,11.70
2023-05-07T00:20:58.996Z,11.70
2023-05-07T00:23:25.674Z,11.70
2023-05-07T00:25:52.255Z,11.80
2023-05-07T00:28:18.884Z,11.70
2023-05-07T00:30:45.575Z,11.70
2023-05-07T00:33:12.262Z,11.70
2023-05-07T00:35:38.890Z,11.80
2023-05-07T00:38:05.697Z,11.70
2023-05-07T00:40:32.402Z,11.70
2023-05-07T00:42:59.610Z,11.70
2023-05-07T00:45:29.879Z,11.70
2023-05-07T00:47:58.307Z,11.70
2023-05-07T00:50:25.222Z,11.60
2023-05-07T00:52:52.026Z,11.70
2023-05-07T00:55:19.032Z,11.60
2023-05-07T00:57:46.194Z,11.50
2023-05-07T01:00:13.916Z,11.60
2023-05-07T01:02:41.527Z,11.50
2023-05-07T01:05:19.915Z,11.60
2023-05-07T01:07:48.157Z,11.60
2023-05-07T01:10:15.859Z,11.60
2023-05-07T01:12:43.605Z,11.50
2023-05-07T01:15:11.082Z,11.60
2023-05-07T01:17:42.582Z,11.60
2023-05-07T01:20:11.365Z,11.60
2023-05-07T01:22:39.562Z,11.60
2023-05-07T01:25:08.330Z,11.60
2023-05-07T01:27:37.121Z,11.60
2023-05-07T01:30:07.840Z,11.60
2023-05-07T01:32:43.381Z,11.60
2023-05-07T01:35:14.912Z,11.70
2023-05-07T01:37:42.384Z,11.70
2023-05-07T01:40:09.811Z,11.70
2023-05-07T01:42:37.202Z,11.70
2023-05-07T01:45:04.121Z,11.70
2023-05-07T01:47:31.377Z,11.60
2023-05-07T01:49:59.009Z,11.60
2023-05-07T01:52:26.054Z,11.60
2023-05-07T01:54:52.730Z,11.60
2023-05-07T01:57:19.397Z,11.60
2023-05-07T01:59:46.308Z,11.50
2023-05-07T02:02:13.031Z,11.50
2023-05-07T02:04:39.838Z,11.60
2023-05-07T02:07:06.445Z,11.60
2023-05-07T02:09:33.108Z,11.60
2023-05-07T02:11:59.697Z,11.70
2023-05-07T02:14:26.997Z,11.70
2023-05-07T02:16:53.684Z,11.70
2023-05-07T02:19:22.063Z,11.60
2023-05-07T02:21:49.082Z,11.60
2023-05-07T02:24:15.901Z,11.60
2023-05-07T02:26:42.524Z,11.60
2023-05-07T02:29:09.214Z,11.60
2023-05-07T02:31:35.948Z,11.50
2023-05-07T02:34:02.917Z,11.50
2023-05-07T02:36:29.609Z,11.60
2023-05-07T02:38:56.357Z,11.60
2023-05-07T02:41:22.973Z,11.70
2023-05-07T02:43:49.647Z,11.70
2023-05-07T02:46:16.824Z,11.70
2023-05-07T02:48:43.946Z,11.70
2023-05-07T02:51:10.639Z,11.60
2023-05-07T02:53:37.720Z,11.60
2023-05-07T02:56:04.584Z,11.60
2023-05-07T02:58:31.302Z,11.60
2023-05-07T03:00:58.220Z,11.60
2023-05-07T03:03:25.047Z,11.60
2023-05-07T03:05:51.760Z,11.50
2023-05-07T03:08:18.488Z,11.60
2023-05-07T03:10:45.213Z,11.70
2023-05-07T03:13:12.009Z,11.70
2023-05-07T03:15:38.870Z,11.80
2023-05-07T03:18:05.663Z,11.80
2023-05-07T03:20:32.436Z,11.80
2023-05-07T03:22:59.295Z,11.80
2023-05-07T03:25:26.045Z,11.70
2023-05-07T03:27:52.764Z,11.60
2023-05-07T03:30:19.896Z,11.60
2023-05-07T03:32:46.718Z,11.50
2023-05-07T03:35:13.592Z,11.50
2023-05-07T03:37:40.687Z,11.50
2023-05-07T03:40:09.080Z,11.40
2023-05-07T03:42:35.869Z,11.40
2023-05-07T03:45:02.664Z,11.40
2023-05-07T03:47:29.318Z,11.40
2023-05-07T03:49:56.734Z,11.30
2023-05-07T03:52:26.772Z,11.20
2023-05-07T03:54:54.450Z,11.20
2023-05-07T03:57:21.410Z,11.20
2023-05-07T03:59:48.025Z,11.10
2023-05-07T04:02:14.708Z,11.10
2023-05-07T04:04:41.430Z,11.20
2023-05-07T04:07:08.401Z,11.30
2023-05-07T04:09:35.094Z,11.30
2023-05-07T04:12:02.322Z,11.20
2023-05-07T04:14:29.051Z,11.20
2023-05-07T04:16:55.772Z,11.20
2023-05-07T04:19:22.497Z,11.30
2023-05-07T04:21:49.079Z,11.30
2023-05-07T04:24:15.746Z,11.40
2023-05-07T04:26:42.530Z,11.40
2023-05-07T04:29:09.157Z,11.40
2023-05-07T04:31:35.745Z,11.40
2023-05-07T04:34:02.672Z,11.40
2023-05-07T04:36:30.077Z,11.40
2023-05-07T04:38:56.735Z,11.30
2023-05-07T04:41:23.352Z,11.30
2023-05-07T04:43:50.054Z,11.40
2023-05-07T04:46:16.912Z,11.50
2023-05-07T04:48:43.561Z,11.40
2023-05-07T04:51:10.263Z,11.40
2023-05-07T04:53:36.954Z,11.40
2023-05-07T04:56:03.707Z,11.40
2023-05-07T04:58:32.664Z,11.50
2023-05-07T05:01:00.433Z,11.50
2023-05-07T05:03:27.362Z,11.60
2023-05-07T05:05:54.121Z,11.70
2023-05-07T05:08:20.879Z,11.70
2023-05-07T05:10:49.621Z,11.70
2023-05-07T05:13:16.487Z,11.70
2023-05-07T05:15:43.472Z,11.80
2023-05-07T05:18:10.168Z,11.90
2023-05-07T05:20:36.945Z,11.90
2023-05-07T05:23:03.652Z,12.10
2023-05-07T05:50:02.077Z,12.20
2023-05-07T05:59:50.294Z,13.50
2023-05-07T06:24:24.802Z,13.90
2023-05-07T06:26:51.472Z,15.10
2023-05-07T06:31:45.386Z,15.10
2023-05-07T06:34:15.081Z,15.40
